sensor_id;sensor_type;location;lat;lon;timestamp;temperature;humidity
14140;DHT22;7150;53.514;9.988;2023-07-29T00:00:36;21.70;99.90
14140;DHT22;7150;53.514;9.988;2023-07-29T00:03:01;21.70;99.90
14140;DHT22;7150;53.514;9.988;2023-07-29T00:05:27;21.60;99.90
14140;DHT22;7150;53.514;9.988;2023-07-29T00:07:52;21.60;99.90
14140;DHT22;7150;53.514;9.988;2023-07-29T00:10:18;21.60;99.90
14140;DHT22;7150;53.514;9.988;2023-07-29T00:12:43;21.60;99.90
14140;DHT22;7150;53.514;9.988;2023-07-29T00:15:09;21.60;99.90
14140;DHT22;7150;53.514;9.988;2023-07-29T00:17:35;21.60;99.90
14140;DHT22;7150;53.514;9.988;2023-07-29T00:20:00;21.60;99.90
14140;DHT22;7150;53.514;9.988;2023-07-29T00:22:25;21.60;99.90
14140;DHT22;7150;53.514;9.988;2023-07-29T00:24:52;21.50;99.90
14140;DHT22;7150;53.514;9.988;2023-07-29T00:27:20;21.50;99.90
14140;DHT22;7150;53.514;9.988;2023-07-29T00:29:45;21.50;99.90
14140;DHT22;7150;53.514;9.988;2023-07-29T00:32:11;21.50;99.90
14140;DHT22;7150;53.514;9.988;2023-07-29T00:34:36;21.40;99.90
14140;DHT22;7150;53.514;9.988;2023-07-29T00:37:02;21.50;99.90
14140;DHT22;7150;53.514;9.988;2023-07-29T00:39:27;21.40;99.90
14140;DHT22;7150;53.514;9.988;2023-07-29T00:41:53;21.40;99.90
14140;DHT22;7150;53.514;9.988;2023-07-29T00:44:18;21.40;99.90
14140;DHT22;7150;53.514;9.988;2023-07-29T00:46:46;21.40;99.90
14140;DHT22;7150;53.514;9.988;2023-07-29T00:49:12;21.40;99.90
14140;DHT22;7150;53.514;9.988;2023-07-29T00:51:37;21.40;99.90
14140;DHT22;7150;53.514;9.988;2023-07-29T00:54:03;21.40;99.90
14140;DHT22;7150;53.514;9.988;2023-07-29T00:56:28;21.40;99.90
14140;DHT22;7150;53.514;9.988;2023-07-29T00:58:54;21.30;99.90
14140;DHT22;7150;53.514;9.988;2023-07-29T01:01:24;21.30;99.90
14140;DHT22;7150;53.514;9.988;2023-07-29T01:03:50;21.40;99.90
14140;DHT22;7150;53.514;9.988;2023-07-29T01:06:23;21.30;99.90
14140;DHT22;7150;53.514;9.988;2023-07-29T01:09:05;21.30;99.90
14140;DHT22;7150;53.514;9.988;2023-07-29T01:14:28;21.30;99.90
14140;DHT22;7150;53.514;9.988;2023-07-29T01:16:58;21.30;99.90
14140;DHT22;7150;53.514;9.988;2023-07-29T01:22:13;21.30;99.90
14140;DHT22;7150;53.514;9.988;2023-07-29T01:24:39;21.30;99.90
14140;DHT22;7150;53.514;9.988;2023-07-29T01:27:05;21.30;99.90
14140;DHT22;7150;53.514;9.988;2023-07-29T01:29:30;21.30;99.90
14140;DHT22;7150;53.514;9.988;2023-07-29T01:32:04;21.30;99.90
14140;DHT22;7150;53.514;9.988;2023-07-29T01:34:41;21.30;99.90
14140;DHT22;7150;53.514;9.988;2023-07-29T01:37:11;21.30;99.90
14140;DHT22;7150;53.514;9.988;2023-07-29T01:39:39;21.30;99.90
14140;DHT22;7150;53.514;9.988;2023-07-29T01:42:05;21.30;99.90
14140;DHT22;7150;53.514;9.988;2023-07-29T01:44:32;21.30;99.90
14140;DHT22;7150;53.514;9.988;2023-07-29T01:46:57;21.30;99.90
14140;DHT22;7150;53.514;9.988;2023-07-29T01:49:23;21.30;99.90
14140;DHT22;7150;53.514;9.988;2023-07-29T01:51:48;21.30;99.90
14140;DHT22;7150;53.514;9.988;2023-07-29T01:54:14;21.30;99.90
14140;DHT22;7150;53.514;9.988;2023-07-29T01:56:39;21.30;99.90
14140;DHT22;7150;53.514;9.988;2023-07-29T01:59:05;21.30;99.90
14140;DHT22;7150;53.514;9.988;2023-07-29T02:01:30;21.30;99.90
14140;DHT22;7150;53.514;9.988;2023-07-29T02:03:56;21.30;99.90
14140;DHT22;7150;53.514;9.988;2023-07-29T02:06:22;21.30;99.90
14140;DHT22;7150;53.514;9.988;2023-07-29T02:08:48;21.30;99.90
14140;DHT22;7150;53.514;9.988;2023-07-29T02:11:13;21.30;99.90
14140;DHT22;7150;53.514;9.988;2023-07-29T02:13:39;21.30;99.90
14140;DHT22;7150;53.514;9.988;2023-07-29T02:16:04;21.20;99.90
14140;DHT22;7150;53.514;9.988;2023-07-29T02:18:30;21.20;99.90
14140;DHT22;7150;53.514;9.988;2023-07-29T02:20:55;21.20;99.90
14140;DHT22;7150;53.514;9.988;2023-07-29T02:23:21;21.20;99.90
14140;DHT22;7150;53.514;9.988;2023-07-29T02:25:46;21.20;99.90
14140;DHT22;7150;53.514;9.988;2023-07-29T02:28:12;21.20;99.90
14140;DHT22;7150;53.514;9.988;2023-07-29T02:30:41;21.30;99.90
14140;DHT22;7150;53.514;9.988;2023-07-29T02:33:06;21.20;99.90
14140;DHT22;7150;53.514;9.988;2023-07-29T02:35:32;21.20;99.90
14140;DHT22;7150;53.514;9.988;2023-07-29T02:37:57;21.20;99.90
14140;DHT22;7150;53.514;9.988;2023-07-29T02:40:23;21.20;99.90
14140;DHT22;7150;53.514;9.988;2023-07-29T02:42:50;21.20;99.90
14140;DHT22;7150;53.514;9.988;2023-07-29T02:45:15;21.20;99.90
14140;DHT22;7150;53.514;9.988;2023-07-29T02:47:41;21.20;99.90
14140;DHT22;7150;53.514;9.988;2023-07-29T02:50:07;21.20;99.90
14140;DHT22;7150;53.514;9.988;2023-07-29T02:52:32;21.20;99.90
14140;DHT22;7150;53.514;9.988;2023-07-29T02:54:58;21.10;99.90
14140;DHT22;7150;53.514;9.988;2023-07-29T02:57:23;21.20;99.90
14140;DHT22;7150;53.514;9.988;2023-07-29T02:59:49;21.10;99.90
14140;DHT22;7150;53.514;9.988;2023-07-29T03:02:14;21.20;99.90
14140;DHT22;7150;53.514;9.988;2023-07-29T03:04:41;21.10;99.90
14140;DHT22;7150;53.514;9.988;2023-07-29T03:07:07;21.10;99.90
14140;DHT22;7150;53.514;9.988;2023-07-29T03:09:32;21.10;99.90
14140;DHT22;7150;53.514;9.988;2023-07-29T03:11:58;21.10;99.90
14140;DHT22;7150;53.514;9.988;2023-07-29T03:14:24;21.10;99.90
14140;DHT22;7150;53.514;9.988;2023-07-29T03:16:50;21.10;99.90
14140;DHT22;7150;53.514;9.988;2023-07-29T03:19:15;21.10;99.90
14140;DHT22;7150;53.514;9.988;2023-07-29T03:21:41;21.00;99.90
14140;DHT22;7150;53.514;9.988;2023-07-29T03:24:07;21.00;99.90
14140;DHT22;7150;53.514;9.988;2023-07-29T03:26:32;21.00;99.90
14140;DHT22;7150;53.514;9.988;2023-07-29T03:28:58;21.00;99.90
14140;DHT22;7150;53.514;9.988;2023-07-29T03:31:23;21.00;99.90
14140;DHT22;7150;53.514;9.988;2023-07-29T03:33:49;21.00;99.90
14140;DHT22;7150;53.514;9.988;2023-07-29T03:36:14;21.00;99.90
14140;DHT22;7150;53.514;9.988;2023-07-29T03:38:40;21.00;99.90
14140;DHT22;7150;53.514;9.988;2023-07-29T03:41:08;21.00;99.90
14140;DHT22;7150;53.514;9.988;2023-07-29T03:43:34;21.00;99.90
14140;DHT22;7150;53.514;9.988;2023-07-29T03:46:00;21.00;99.90
14140;DHT22;7150;53.514;9.988;2023-07-29T03:48:25;21.00;99.90
14140;DHT22;7150;53.514;9.988;2023-07-29T03:50:50;21.00;99.90
14140;DHT22;7150;53.514;9.988;2023-07-29T03:53:16;21.00;99.90
14140;DHT22;7150;53.514;9.988;2023-07-29T03:55:42;21.00;99.90
14140;DHT22;7150;53.514;9.988;2023-07-29T03:58:07;21.00;99.90
14140;DHT22;7150;53.514;9.988;2023-07-29T04:00:33;20.90;99.90
14140;DHT22;7150;53.514;9.988;2023-07-29T04:02:58;20.90;99.90
14140;DHT22;7150;53.514;9.988;2023-07-29T04:05:24;20.90;99.90
14140;DHT22;7150;53.514;9.988;2023-07-29T04:07:50;20.90;99.90
14140;DHT22;7150;53.514;9.988;2023-07-29T04:10:15;20.90;99.90
14140;DHT22;7150;53.514;9.988;2023-07-29T04:12:41;20.90;99.90
14140;DHT22;7150;53.514;9.988;2023-07-29T04:15:07;20.90;99.90
14140;DHT22;7150;53.514;9.988;2023-07-29T04:17:32;20.90;99.90
14140;DHT22;7150;53.514;9.988;2023-07-29T04:19:58;20.90;99.90
14140;DHT22;7150;53.514;9.988;2023-07-29T04:22:23;20.90;99.90
14140;DHT22;7150;53.514;9.988;2023-07-29T04:24:49;20.90;99.90
14140;DHT22;7150;53.514;9.988;2023-07-29T04:27:14;20.90;99.90
14140;DHT22;7150;53.514;9.988;2023-07-29T04:29:40;20.90;99.90
14140;DHT22;7150;53.514;9.988;2023-07-29T04:32:05;20.90;99.90
14140;DHT22;7150;53.514;9.988;2023-07-29T04:34:31;21.00;99.90
14140;DHT22;7150;53.514;9.988;2023-07-29T04:36:57;21.00;99.90
14140;DHT22;7150;53.514;9.988;2023-07-29T04:39:22;21.00;99.90
14140;DHT22;7150;53.514;9.988;2023-07-29T04:41:48;21.00;99.90
14140;DHT22;7150;53.514;9.988;2023-07-29T04:44:13;21.00;99.90
14140;DHT22;7150;53.514;9.988;2023-07-29T04:46:39;21.00;99.90
14140;DHT22;7150;53.514;9.988;2023-07-29T04:49:04;21.00;99.90
14140;DHT22;7150;53.514;9.988;2023-07-29T04:51:30;21.00;99.90
14140;DHT22;7150;53.514;9.988;2023-07-29T04:53:57;21.00;99.90
14140;DHT22;7150;53.514;9.988;2023-07-29T04:56:22;21.00;99.90
14140;DHT22;7150;53.514;9.988;2023-07-29T04:58:48;21.00;99.90
14140;DHT22;7150;53.514;9.988;2023-07-29T05:01:13;21.10;99.90
14140;DHT22;7150;53.514;9.988;2023-07-29T05:03:39;21.10;99.90
14140;DHT22;7150;53.514;9.988;2023-07-29T05:06:05;21.00;99.90
14140;DHT22;7150;53.514;9.988;2023-07-29T05:08:30;21.10;99.90
14140;DHT22;7150;53.514;9.988;2023-07-29T05:10:56;21.10;99.90
14140;DHT22;7150;53.514;9.988;2023-07-29T05:13:22;21.10;99.90
14140;DHT22;7150;53.514;9.988;2023-07-29T05:15:49;21.10;99.90
14140;DHT22;7150;53.514;9.988;2023-07-29T05:18:15;21.10;99.90
14140;DHT22;7150;53.514;9.988;2023-07-29T05:20:41;21.10;99.90
14140;DHT22;7150;53.514;9.988;2023-07-29T05:23:06;21.10;99.90
14140;DHT22;7150;53.514;9.988;2023-07-29T05:25:32;21.10;99.90
14140;DHT22;7150;53.514;9.988;2023-07-29T05:28:00;21.10;99.90
14140;DHT22;7150;53.514;9.988;2023-07-29T05:30:25;21.10;99.90
14140;DHT22;7150;53.514;9.988;2023-07-29T05:32:52;21.20;99.90
14140;DHT22;7150;53.514;9.988;2023-07-29T05:35:17;21.20;99.90
14140;DHT22;7150;53.514;9.988;2023-07-29T05:37:43;21.20;99.90
14140;DHT22;7150;53.514;9.988;2023-07-29T05:40:08;21.20;99.90
14140;DHT22;7150;53.514;9.988;2023-07-29T05:42:34;21.20;99.90
14140;DHT22;7150;53.514;9.988;2023-07-29T05:45:00;21.20;99.90
14140;DHT22;7150;53.514;9.988;2023-07-29T05:47:26;21.20;99.90
14140;DHT22;7150;53.514;9.988;2023-07-29T05:49:52;21.20;99.90
14140;DHT22;7150;53.514;9.988;2023-07-29T05:52:18;21.20;99.90
14140;DHT22;7150;53.514;9.988;2023-07-29T05:54:43;21.20;99.90
14140;DHT22;7150;53.514;9.988;2023-07-29T05:57:10;21.20;99.90
14140;DHT22;7150;53.514;9.988;2023-07-29T05:59:35;21.20;99.90
14140;DHT22;7150;53.514;9.988;2023-07-29T06:02:01;21.20;99.90
14140;DHT22;7150;53.514;9.988;2023-07-29T06:04:26;21.20;99.90
14140;DHT22;7150;53.514;9.988;2023-07-29T06:06:52;21.20;99.90
14140;DHT22;7150;53.514;9.988;2023-07-29T06:09:17;21.20;99.90
14140;DHT22;7150;53.514;9.988;2023-07-29T06:11:43;21.20;99.90
14140;DHT22;7150;53.514;9.988;2023-07-29T06:14:09;21.20;99.90
14140;DHT22;7150;53.514;9.988;2023-07-29T06:16:34;21.20;99.90
14140;DHT22;7150;53.514;9.988;2023-07-29T06:18:59;21.20;99.90
14140;DHT22;7150;53.514;9.988;2023-07-29T06:21:25;21.30;99.90
14140;DHT22;7150;53.514;9.988;2023-07-29T06:23:50;21.30;99.90
14140;DHT22;7150;53.514;9.988;2023-07-29T06:26:16;21.30;99.90
14140;DHT22;7150;53.514;9.988;2023-07-29T06:28:41;21.30;99.90
14140;DHT22;7150;53.514;9.988;2023-07-29T06:31:07;21.30;99.90
14140;DHT22;7150;53.514;9.988;2023-07-29T06:33:32;21.30;99.90
14140;DHT22;7150;53.514;9.988;2023-07-29T06:35:58;21.30;99.90
14140;DHT22;7150;53.514;9.988;2023-07-29T06:38:23;21.30;99.90
14140;DHT22;7150;53.514;9.988;2023-07-29T06:40:49;21.30;99.90
14140;DHT22;7150;53.514;9.988;2023-07-29T06:43:14;21.20;99.90
14140;DHT22;7150;53.514;9.988;2023-07-29T06:45:40;21.30;99.90
14140;DHT22;7150;53.514;9.988;2023-07-29T06:48:05;21.30;99.90
14140;DHT22;7150;53.514;9.988;2023-07-29T06:50:31;21.30;99.90
14140;DHT22;7150;53.514;9.988;2023-07-29T06:52:56;21.30;99.90
14140;DHT22;7150;53.514;9.988;2023-07-29T06:55:22;21.40;99.90
14140;DHT22;7150;53.514;9.988;2023-07-29T06:57:47;21.40;99.90
14140;DHT22;7150;53.514;9.988;2023-07-29T07:00:13;21.40;99.90
14140;DHT22;7150;53.514;9.988;2023-07-29T07:02:39;21.40;99.90
14140;DHT22;7150;53.514;9.988;2023-07-29T07:05:05;21.40;99.90
14140;DHT22;7150;53.514;9.988;2023-07-29T07:07:30;21.50;99.90
14140;DHT22;7150;53.514;9.988;2023-07-29T07:09:56;21.40;99.90
14140;DHT22;7150;53.514;9.988;2023-07-29T07:12:22;21.40;99.90
14140;DHT22;7150;53.514;9.988;2023-07-29T07:14:47;21.50;99.90
14140;DHT22;7150;53.514;9.988;2023-07-29T07:17:13;21.50;99.90
14140;DHT22;7150;53.514;9.988;2023-07-29T07:19:39;21.50;99.90
14140;DHT22;7150;53.514;9.988;2023-07-29T07:22:04;21.40;99.90
14140;DHT22;7150;53.514;9.988;2023-07-29T07:24:30;21.40;99.90
14140;DHT22;7150;53.514;9.988;2023-07-29T07:26:56;21.50;99.90
14140;DHT22;7150;53.514;9.988;2023-07-29T07:29:21;21.50;99.90
14140;DHT22;7150;53.514;9.988;2023-07-29T07:31:54;21.40;99.90
14140;DHT22;7150;53.514;9.988;2023-07-29T07:34:22;21.40;99.90
14140;DHT22;7150;53.514;9.988;2023-07-29T07:36:48;21.40;99.90
14140;DHT22;7150;53.514;9.988;2023-07-29T07:39:14;21.40;99.90
14140;DHT22;7150;53.514;9.988;2023-07-29T07:41:40;21.50;99.90
14140;DHT22;7150;53.514;9.988;2023-07-29T07:44:06;21.50;99.90
14140;DHT22;7150;53.514;9.988;2023-07-29T07:46:32;21.50;99.90
14140;DHT22;7150;53.514;9.988;2023-07-29T07:48:57;21.50;99.90
14140;DHT22;7150;53.514;9.988;2023-07-29T07:51:23;21.50;99.90
14140;DHT22;7150;53.514;9.988;2023-07-29T07:53:48;21.50;99.90
14140;DHT22;7150;53.514;9.988;2023-07-29T07:56:14;21.50;99.90
14140;DHT22;7150;53.514;9.988;2023-07-29T07:58:40;21.50;99.90
14140;DHT22;7150;53.514;9.988;2023-07-29T08:01:06;21.50;99.90
14140;DHT22;7150;53.514;9.988;2023-07-29T08:03:32;21.50;99.90
14140;DHT22;7150;53.514;9.988;2023-07-29T08:05:58;21.50;99.90
14140;DHT22;7150;53.514;9.988;2023-07-29T08:08:25;21.50;99.90
14140;DHT22;7150;53.514;9.988;2023-07-29T08:10:52;21.50;99.90
14140;DHT22;7150;53.514;9.988;2023-07-29T08:13:18;21.50;99.90
14140;DHT22;7150;53.514;9.988;2023-07-29T08:15:47;21.50;99.90
14140;DHT22;7150;53.514;9.988;2023-07-29T08:18:12;21.50;99.90
14140;DHT22;7150;53.514;9.988;2023-07-29T08:20:38;21.50;99.90
14140;DHT22;7150;53.514;9.988;2023-07-29T08:23:03;21.50;99.90
14140;DHT22;7150;53.514;9.988;2023-07-29T08:25:29;21.50;99.90
14140;DHT22;7150;53.514;9.988;2023-07-29T08:27:54;21.50;99.90
14140;DHT22;7150;53.514;9.988;2023-07-29T08:30:20;21.60;99.90
14140;DHT22;7150;53.514;9.988;2023-07-29T08:32:46;21.60;99.90
14140;DHT22;7150;53.514;9.988;2023-07-29T08:35:11;21.60;99.90
14140;DHT22;7150;53.514;9.988;2023-07-29T08:37:36;21.60;99.90
14140;DHT22;7150;53.514;9.988;2023-07-29T08:40:02;21.50;99.90
14140;DHT22;7150;53.514;9.988;2023-07-29T08:42:31;21.50;99.90
14140;DHT22;7150;53.514;9.988;2023-07-29T08:44:56;21.60;99.90
14140;DHT22;7150;53.514;9.988;2023-07-29T08:47:24;21.60;99.90
14140;DHT22;7150;53.514;9.988;2023-07-29T08:49:50;21.60;99.90
14140;DHT22;7150;53.514;9.988;2023-07-29T08:52:18;21.60;99.90
14140;DHT22;7150;53.514;9.988;2023-07-29T08:54:44;21.60;99.90
14140;DHT22;7150;53.514;9.988;2023-07-29T08:57:10;21.70;99.90
14140;DHT22;7150;53.514;9.988;2023-07-29T08:59:36;21.70;99.90
14140;DHT22;7150;53.514;9.988;2023-07-29T09:02:02;21.70;99.90
14140;DHT22;7150;53.514;9.988;2023-07-29T09:04:27;21.60;99.90
14140;DHT22;7150;53.514;9.988;2023-07-29T09:06:55;21.50;99.90
14140;DHT22;7150;53.514;9.988;2023-07-29T09:09:21;21.50;99.90
14140;DHT22;7150;53.514;9.988;2023-07-29T09:11:48;21.60;99.90
14140;DHT22;7150;53.514;9.988;2023-07-29T09:14:13;21.60;99.90
14140;DHT22;7150;53.514;9.988;2023-07-29T09:16:39;21.60;99.90
14140;DHT22;7150;53.514;9.988;2023-07-29T09:19:05;21.70;99.90
14140;DHT22;7150;53.514;9.988;2023-07-29T09:21:31;21.70;99.90
14140;DHT22;7150;53.514;9.988;2023-07-29T09:23:57;21.70;99.90
14140;DHT22;7150;53.514;9.988;2023-07-29T09:26:26;21.80;99.90
14140;DHT22;7150;53.514;9.988;2023-07-29T09:28:56;21.80;99.90
14140;DHT22;7150;53.514;9.988;2023-07-29T09:31:23;21.80;99.90
14140;DHT22;7150;53.514;9.988;2023-07-29T09:33:49;21.70;99.90
14140;DHT22;7150;53.514;9.988;2023-07-29T09:36:15;21.60;99.90
14140;DHT22;7150;53.514;9.988;2023-07-29T09:38:40;21.60;99.90
14140;DHT22;7150;53.514;9.988;2023-07-29T09:41:06;21.60;99.90
14140;DHT22;7150;53.514;9.988;2023-07-29T09:43:34;21.60;99.90
14140;DHT22;7150;53.514;9.988;2023-07-29T09:46:04;21.60;99.90
14140;DHT22;7150;53.514;9.988;2023-07-29T09:48:36;21.70;99.90
14140;DHT22;7150;53.514;9.988;2023-07-29T09:51:15;21.80;99.90
14140;DHT22;7150;53.514;9.988;2023-07-29T09:53:46;21.80;99.90
14140;DHT22;7150;53.514;9.988;2023-07-29T09:56:13;21.80;99.90
14140;DHT22;7150;53.514;9.988;2023-07-29T09:58:39;21.90;99.90
14140;DHT22;7150;53.514;9.988;2023-07-29T10:01:06;21.90;99.90
14140;DHT22;7150;53.514;9.988;2023-07-29T10:03:32;22.00;99.90
14140;DHT22;7150;53.514;9.988;2023-07-29T10:06:02;22.00;99.90
14140;DHT22;7150;53.514;9.988;2023-07-29T10:08:30;22.10;99.90
14140;DHT22;7150;53.514;9.988;2023-07-29T10:10:59;22.10;99.90
14140;DHT22;7150;53.514;9.988;2023-07-29T10:13:25;22.20;99.90
14140;DHT22;7150;53.514;9.988;2023-07-29T10:15:53;22.20;99.90
14140;DHT22;7150;53.514;9.988;2023-07-29T10:18:18;22.20;99.90
14140;DHT22;7150;53.514;9.988;2023-07-29T10:20:45;22.20;99.90
14140;DHT22;7150;53.514;9.988;2023-07-29T10:23:11;22.20;99.90
14140;DHT22;7150;53.514;9.988;2023-07-29T10:25:39;22.10;99.90
14140;DHT22;7150;53.514;9.988;2023-07-29T10:28:07;22.00;99.90
14140;DHT22;7150;53.514;9.988;2023-07-29T10:30:34;22.00;99.90
14140;DHT22;7150;53.514;9.988;2023-07-29T10:33:04;22.00;99.90
14140;DHT22;7150;53.514;9.988;2023-07-29T10:35:31;22.10;99.90
14140;DHT22;7150;53.514;9.988;2023-07-29T10:37:59;22.20;99.90
14140;DHT22;7150;53.514;9.988;2023-07-29T10:40:25;22.20;99.90
14140;DHT22;7150;53.514;9.988;2023-07-29T10:43:01;22.30;99.90
14140;DHT22;7150;53.514;9.988;2023-07-29T10:45:36;22.40;99.90
14140;DHT22;7150;53.514;9.988;2023-07-29T10:48:06;22.40;99.90
14140;DHT22;7150;53.514;9.988;2023-07-29T10:50:33;22.40;99.90
14140;DHT22;7150;53.514;9.988;2023-07-29T10:52:59;22.30;99.90
14140;DHT22;7150;53.514;9.988;2023-07-29T10:55:28;22.30;99.90
14140;DHT22;7150;53.514;9.988;2023-07-29T10:58:12;22.30;99.90
14140;DHT22;7150;53.514;9.988;2023-07-29T11:00:41;22.40;99.90
14140;DHT22;7150;53.514;9.988;2023-07-29T11:03:07;22.30;99.90
14140;DHT22;7150;53.514;9.988;2023-07-29T11:08:28;22.40;99.90
14140;DHT22;7150;53.514;9.988;2023-07-29T11:11:05;22.30;99.90
14140;DHT22;7150;53.514;9.988;2023-07-29T11:13:33;22.30;99.90
14140;DHT22;7150;53.514;9.988;2023-07-29T11:15:59;22.40;99.90
14140;DHT22;7150;53.514;9.988;2023-07-29T11:18:30;22.40;99.90
14140;DHT22;7150;53.514;9.988;2023-07-29T11:20:57;22.50;99.90
14140;DHT22;7150;53.514;9.988;2023-07-29T11:23:33;22.50;99.90
14140;DHT22;7150;53.514;9.988;2023-07-29T11:26:00;22.60;99.90
14140;DHT22;7150;53.514;9.988;2023-07-29T11:28:27;22.60;99.90
14140;DHT22;7150;53.514;9.988;2023-07-29T11:30:55;22.60;99.90
14140;DHT22;7150;53.514;9.988;2023-07-29T11:33:22;22.50;99.90
14140;DHT22;7150;53.514;9.988;2023-07-29T11:35:47;22.50;99.90
14140;DHT22;7150;53.514;9.988;2023-07-29T11:38:19;22.40;99.90
14140;DHT22;7150;53.514;9.988;2023-07-29T11:40:59;22.40;99.90
14140;DHT22;7150;53.514;9.988;2023-07-29T11:43:25;22.40;99.90
14140;DHT22;7150;53.514;9.988;2023-07-29T11:45:51;22.30;99.90
14140;DHT22;7150;53.514;9.988;2023-07-29T11:48:18;22.30;99.90
14140;DHT22;7150;53.514;9.988;2023-07-29T11:50:45;22.50;99.90
14140;DHT22;7150;53.514;9.988;2023-07-29T11:53:11;22.50;99.90
14140;DHT22;7150;53.514;9.988;2023-07-29T11:55:37;22.60;99.90
14140;DHT22;7150;53.514;9.988;2023-07-29T11:58:02;22.60;99.90
14140;DHT22;7150;53.514;9.988;2023-07-29T12:00:28;22.60;99.90
14140;DHT22;7150;53.514;9.988;2023-07-29T12:02:54;22.50;99.90
14140;DHT22;7150;53.514;9.988;2023-07-29T12:05:21;22.60;99.90
14140;DHT22;7150;53.514;9.988;2023-07-29T12:07:47;22.60;99.90
14140;DHT22;7150;53.514;9.988;2023-07-29T12:10:13;22.70;99.90
14140;DHT22;7150;53.514;9.988;2023-07-29T12:12:46;22.70;99.90
14140;DHT22;7150;53.514;9.988;2023-07-29T12:15:12;22.80;99.90
14140;DHT22;7150;53.514;9.988;2023-07-29T12:17:41;22.90;99.90
14140;DHT22;7150;53.514;9.988;2023-07-29T12:20:10;23.10;99.90
14140;DHT22;7150;53.514;9.988;2023-07-29T12:22:36;23.30;99.90
14140;DHT22;7150;53.514;9.988;2023-07-29T12:25:02;23.30;99.90
14140;DHT22;7150;53.514;9.988;2023-07-29T12:27:30;23.30;99.90
14140;DHT22;7150;53.514;9.988;2023-07-29T12:29:55;23.30;99.90
14140;DHT22;7150;53.514;9.988;2023-07-29T12:32:25;23.50;99.90
14140;DHT22;7150;53.514;9.988;2023-07-29T12:34:53;23.50;99.90
14140;DHT22;7150;53.514;9.988;2023-07-29T12:37:19;23.50;99.90
14140;DHT22;7150;53.514;9.988;2023-07-29T12:39:44;23.50;99.90
14140;DHT22;7150;53.514;9.988;2023-07-29T12:42:10;23.40;99.90
14140;DHT22;7150;53.514;9.988;2023-07-29T12:44:36;23.40;99.90
14140;DHT22;7150;53.514;9.988;2023-07-29T12:47:03;23.30;99.90
14140;DHT22;7150;53.514;9.988;2023-07-29T12:49:29;23.20;99.90
14140;DHT22;7150;53.514;9.988;2023-07-29T12:51:56;23.20;99.90
14140;DHT22;7150;53.514;9.988;2023-07-29T12:54:22;23.40;99.90
14140;DHT22;7150;53.514;9.988;2023-07-29T12:56:47;23.60;99.90
14140;DHT22;7150;53.514;9.988;2023-07-29T12:59:13;23.60;99.90
14140;DHT22;7150;53.514;9.988;2023-07-29T13:01:38;23.60;99.90
14140;DHT22;7150;53.514;9.988;2023-07-29T13:04:04;23.60;99.90
14140;DHT22;7150;53.514;9.988;2023-07-29T13:06:29;23.60;99.90
14140;DHT22;7150;53.514;9.988;2023-07-29T13:08:56;23.50;99.90
14140;DHT22;7150;53.514;9.988;2023-07-29T13:11:21;23.50;99.90
14140;DHT22;7150;53.514;9.988;2023-07-29T13:13:47;23.50;99.90
14140;DHT22;7150;53.514;9.988;2023-07-29T13:16:12;23.60;99.90
14140;DHT22;7150;53.514;9.988;2023-07-29T13:18:38;23.60;99.90
14140;DHT22;7150;53.514;9.988;2023-07-29T13:21:04;23.40;99.90
14140;DHT22;7150;53.514;9.988;2023-07-29T13:23:30;23.30;99.90
14140;DHT22;7150;53.514;9.988;2023-07-29T13:25:57;23.20;99.90
14140;DHT22;7150;53.514;9.988;2023-07-29T13:28:23;23.30;99.90
14140;DHT22;7150;53.514;9.988;2023-07-29T13:30:49;23.30;99.90
14140;DHT22;7150;53.514;9.988;2023-07-29T13:33:14;23.30;99.90
14140;DHT22;7150;53.514;9.988;2023-07-29T13:35:39;23.30;99.90
14140;DHT22;7150;53.514;9.988;2023-07-29T13:38:05;23.30;99.90
14140;DHT22;7150;53.514;9.988;2023-07-29T13:40:31;23.30;99.90
14140;DHT22;7150;53.514;9.988;2023-07-29T13:42:57;23.40;99.90
14140;DHT22;7150;53.514;9.988;2023-07-29T13:45:22;23.40;99.90
14140;DHT22;7150;53.514;9.988;2023-07-29T13:47:49;23.40;99.90
14140;DHT22;7150;53.514;9.988;2023-07-29T13:50:15;23.40;99.90
14140;DHT22;7150;53.514;9.988;2023-07-29T13:52:41;23.50;99.90
14140;DHT22;7150;53.514;9.988;2023-07-29T13:55:07;23.50;99.90
14140;DHT22;7150;53.514;9.988;2023-07-29T13:57:32;23.50;99.90
14140;DHT22;7150;53.514;9.988;2023-07-29T13:59:58;23.60;99.90
14140;DHT22;7150;53.514;9.988;2023-07-29T14:02:24;23.60;99.90
14140;DHT22;7150;53.514;9.988;2023-07-29T14:04:52;23.60;99.90
14140;DHT22;7150;53.514;9.988;2023-07-29T14:07:18;23.60;99.90
14140;DHT22;7150;53.514;9.988;2023-07-29T14:09:43;23.70;99.90
14140;DHT22;7150;53.514;9.988;2023-07-29T14:12:09;23.70;99.90
14140;DHT22;7150;53.514;9.988;2023-07-29T14:14:40;23.70;99.90
14140;DHT22;7150;53.514;9.988;2023-07-29T14:17:05;23.80;99.90
14140;DHT22;7150;53.514;9.988;2023-07-29T14:19:31;23.70;99.90
14140;DHT22;7150;53.514;9.988;2023-07-29T14:21:57;23.70;99.90
14140;DHT22;7150;53.514;9.988;2023-07-29T14:26:58;23.90;99.90
14140;DHT22;7150;53.514;9.988;2023-07-29T14:29:23;23.90;99.90
14140;DHT22;7150;53.514;9.988;2023-07-29T14:31:49;23.90;99.90
14140;DHT22;7150;53.514;9.988;2023-07-29T14:34:14;24.00;99.90
14140;DHT22;7150;53.514;9.988;2023-07-29T14:36:40;24.10;99.90
14140;DHT22;7150;53.514;9.988;2023-07-29T14:39:06;24.30;99.90
14140;DHT22;7150;53.514;9.988;2023-07-29T14:41:34;24.70;99.90
14140;DHT22;7150;53.514;9.988;2023-07-29T14:43:59;25.10;99.90
14140;DHT22;7150;53.514;9.988;2023-07-29T14:46:25;25.40;98.80
14140;DHT22;7150;53.514;9.988;2023-07-29T14:48:50;25.70;97.80
14140;DHT22;7150;53.514;9.988;2023-07-29T14:51:16;25.90;97.00
14140;DHT22;7150;53.514;9.988;2023-07-29T14:53:42;25.80;97.10
14140;DHT22;7150;53.514;9.988;2023-07-29T14:56:08;25.80;96.80
14140;DHT22;7150;53.514;9.988;2023-07-29T14:58:34;25.90;96.30
14140;DHT22;7150;53.514;9.988;2023-07-29T15:00:59;26.00;96.10
14140;DHT22;7150;53.514;9.988;2023-07-29T15:03:25;26.50;97.00
14140;DHT22;7150;53.514;9.988;2023-07-29T15:05:50;26.90;95.40
14140;DHT22;7150;53.514;9.988;2023-07-29T15:08:16;27.50;95.40
14140;DHT22;7150;53.514;9.988;2023-07-29T15:10:47;27.90;93.50
14140;DHT22;7150;53.514;9.988;2023-07-29T15:13:12;28.30;93.70
14140;DHT22;7150;53.514;9.988;2023-07-29T15:15:42;28.70;92.60
14140;DHT22;7150;53.514;9.988;2023-07-29T15:18:08;29.10;92.20
14140;DHT22;7150;53.514;9.988;2023-07-29T15:20:34;29.50;91.10
14140;DHT22;7150;53.514;9.988;2023-07-29T15:22:59;29.90;90.40
14140;DHT22;7150;53.514;9.988;2023-07-29T15:25:25;30.20;88.80
14140;DHT22;7150;53.514;9.988;2023-07-29T15:27:50;30.50;89.70
14140;DHT22;7150;53.514;9.988;2023-07-29T15:30:15;30.90;85.50
14140;DHT22;7150;53.514;9.988;2023-07-29T15:32:41;30.70;85.40
14140;DHT22;7150;53.514;9.988;2023-07-29T15:35:07;30.70;84.70
14140;DHT22;7150;53.514;9.988;2023-07-29T15:37:33;30.80;84.30
14140;DHT22;7150;53.514;9.988;2023-07-29T15:39:58;30.90;86.20
14140;DHT22;7150;53.514;9.988;2023-07-29T15:42:24;31.10;83.80
14140;DHT22;7150;53.514;9.988;2023-07-29T15:44:49;31.20;81.90
14140;DHT22;7150;53.514;9.988;2023-07-29T15:47:15;30.60;82.10
14140;DHT22;7150;53.514;9.988;2023-07-29T15:49:44;29.50;84.00